Forside
METAR-TAF:

METAR-TAF

Lufthavne :

Tonopah Airport

Tonopah, Nevada, USA

Breddekreds: 38-03-37N, længdekreds: 117-05-14W, højde: 1654 m

Aktuelle vejr

Denne rapport blev lavet for 35 minutter siden, kl. 06:56 UTC
Vind 6 kt fra øst
Temperatur 6°C
Fugtighed 33%
Tryk 1021 hPa
Sigt: 16.1 km
skyfri

METAR: KTPH 290656Z AUTO 10006KT 10SM CLR 06/M09 A3016 RMK AO2 SLP189 T00561089

Tid: 23:31 (07:31 UTC)

Vejrudsigter

Denne rapport blev lavet for 2 timer og 8 minutter siden, kl. 05:23 UTC
Foreløbig gælder fra 29 på 06 UTC til 01 på 06 UTC
Vind 5 kt fra varierende retninger
Sigt: 10 km
Brudte skyer i en højde af 15000 ft
Fra 29 på 0800 UTC
Vind 8 kt fra nord
Sigt: 10 km
Brudte skyer i en højde af 12000 ft
Fra 29 på 2000 UTC
Vind 15 kt fra sydvest med vindstød på up til 25 kt
Sigt: 10 km
Brudte skyer i en højde af 12000 ft
Overskyet i en højde af 25000 ft

TAF: KTPH 290523Z 2906/0106 VRB05KT P6SM BKN150 FM290800 36008KT P6SM BKN120 FM292000 22015G25KT P6SM BKN120 OVC250

Vejrobservationer og prognoser fra mere end 4000 lufthavne (METAR og TAF).

De gule og røde prikker repræsenterer de meteorologiske stationer.

Flyt musen over at se navnet på stationen.

Så klik over at se vejr observationer og prognoser.

At skifte det kort: Klik på de grønne knapper med et sort kors for at zoome ind; på den grønne knap med en bindestreg for at zoome ud; eller på de grønne pile for tilstødende kort.


METAR-TAF: